KCRS

C David Campbell Field-Corsicana Municipal Airport

Corsicana, Texas, USA
METAR KCRS 231607Z AUTO 11012KT 3/4SM BR OVC002 09/09 A3015 RMK AO2 T00940094
Observed Flight Rules
Feb-23 @ 16:07 UTC (26 minutes ago) Instrument Flight Rules
Wind Visibility Clouds Conditions
110° at 12 knots 3/4 miles
  • Overcast at 200' AGL
  • Mist
Temperatures Readings
Current 9°C / 48°F
Dewpoint 9°C / 48°F
Humidity 100%
Altimeter 30.15" Hg
Pressure 1021 hPa
Elevation 133
METAR KCRS 231607Z AUTO 11012KT 3/4SM BR OVC002 09/09 A3015 RMK AO2 T00940094
Observed Flight Rules
Feb-23 @ 16:07 UTC
(26 minutes ago)
LIFR
Wind Visibility
110° at 12 knots 3/4 miles
Clouds
  • Overcast at 200' AGL
Conditions
  • Mist
Temperature Dewpoint
9°C / 48°F 9°C / 48°F
Humidity Altimeter Pressure
100% 30.15" Hg 1021 hPa